Time;durP1;ratioP1;P1;durP2;ratioP2;P2;SDS_P1;SDS_P2;PMS_P1;PMS_P2;Temp;Humidity;BMP_temperature;BMP_pressure;BME280_temperature;BME280_humidity;BME280_pressure;Samples;Min_cycle;Max_cycle;Signal;HPM_P1;HPM_P2
2022/05/13 00:00:57;;;;;;;2.08;1.48;;;;;;;;;;5061165;28;20507;-50
2022/05/13 00:03:23;;;;;;;2.40;1.52;;;;;;;;;;5064608;28;20024;-51
2022/05/13 00:05:52;;;;;;;4.03;2.17;;;;;;;;;;5059971;28;20383;-50
2022/05/13 00:08:18;;;;;;;4.45;1.58;;;;;;;;;;5064959;28;20506;-51
2022/05/13 00:10:44;;;;;;;4.38;1.50;;;;;;;;;;5062231;28;20021;-50
2022/05/13 00:13:11;;;;;;;2.55;1.60;;;;;;;;;;5059862;28;20021;-49
2022/05/13 00:15:37;;;;;;;3.10;1.70;;;;;;;;;;5062266;28;20553;-49
2022/05/13 00:18:03;;;;;;;3.17;1.73;;;;;;;;;;5065703;28;20048;-49
2022/05/13 00:20:29;;;;;;;4.32;1.70;;;;;;;;;;5065579;28;20079;-50
2022/05/13 00:22:56;;;;;;;4.07;1.85;;;;;;;;;;5070586;28;20032;-52
2022/05/13 00:25:25;;;;;;;3.28;1.55;;;;;;;;;;5061396;28;20036;-49
2022/05/13 00:27:51;;;;;;;4.10;1.90;;;;;;;;;;5054916;28;20029;-52
2022/05/13 00:30:17;;;;;;;1.90;1.75;;;;;;;;;;5055107;28;20432;-50
2022/05/13 00:32:48;;;;;;;2.75;1.60;;;;;;;;;;5060564;28;20045;-49
2022/05/13 00:35:14;;;;;;;2.33;1.90;;;;;;;;;;5059256;28;20028;-49
2022/05/13 00:37:40;;;;;;;2.55;1.95;;;;;;;;;;5056715;28;20021;-49
2022/05/13 00:40:07;;;;;;;2.97;1.60;;;;;;;;;;5068029;28;20107;-50
2022/05/13 00:42:32;;;;;;;2.53;1.55;;;;;;;;;;5062577;28;20029;-49
2022/05/13 00:44:58;;;;;;;2.65;1.58;;;;;;;;;;5066601;28;20078;-50
2022/05/13 00:47:25;;;;;;;3.47;2.08;;;;;;;;;;5068347;28;20037;-50
2022/05/13 00:49:52;;;;;;;3.80;2.10;;;;;;;;;;5069626;28;20028;-49
2022/05/13 00:52:18;;;;;;;4.05;1.92;;;;;;;;;;5053444;28;20511;-51
2022/05/13 00:54:44;;;;;;;4.43;1.88;;;;;;;;;;5061269;28;20124;-50
2022/05/13 00:57:13;;;;;;;6.00;2.15;;;;;;;;;;5064327;28;20745;-49
2022/05/13 00:59:42;;;;;;;3.03;2.00;;;;;;;;;;5062218;28;20536;-49
2022/05/13 01:02:08;;;;;;;4.15;2.05;;;;;;;;;;5067034;28;20111;-52
2022/05/13 01:04:35;;;;;;;3.92;2.00;;;;;;;;;;5058885;28;20432;-49
2022/05/13 01:07:03;;;;;;;2.63;1.90;;;;;;;;;;5063122;28;20028;-49
2022/05/13 01:09:31;;;;;;;3.30;1.67;;;;;;;;;;5061602;28;20036;-51
2022/05/13 01:11:59;;;;;;;4.38;1.90;;;;;;;;;;5067237;28;20077;-53
2022/05/13 01:14:29;;;;;;;2.90;2.00;;;;;;;;;;5067568;28;20361;-50
2022/05/13 01:19:40;;;;;;;4.15;1.90;;;;;;;;;;5066164;28;20102;-50
2022/05/13 01:22:11;;;;;;;3.63;2.42;;;;;;;;;;5056495;28;20427;-50
2022/05/13 01:24:37;;;;;;;4.32;2.03;;;;;;;;;;5062234;28;20204;-50
2022/05/13 01:27:04;;;;;;;3.08;2.08;;;;;;;;;;5057306;28;20027;-48
2022/05/13 01:29:30;;;;;;;2.47;1.70;;;;;;;;;;5062758;28;20413;-49
2022/05/13 01:31:55;;;;;;;3.30;2.15;;;;;;;;;;5066930;28;20033;-49
2022/05/13 01:34:21;;;;;;;2.42;1.90;;;;;;;;;;5068901;28;20488;-50
2022/05/13 01:36:47;;;;;;;2.40;2.03;;;;;;;;;;5067972;28;20447;-48
2022/05/13 01:39:13;;;;;;;3.25;2.15;;;;;;;;;;5056422;28;20063;-50
2022/05/13 01:41:39;;;;;;;3.92;2.33;;;;;;;;;;5060303;28;20098;-49
2022/05/13 01:44:05;;;;;;;2.75;2.13;;;;;;;;;;5068082;28;20135;-51
2022/05/13 01:46:32;;;;;;;2.47;2.20;;;;;;;;;;5072344;28;20047;-49
2022/05/13 01:48:58;;;;;;;3.88;2.20;;;;;;;;;;5064900;28;20127;-48
2022/05/13 01:51:24;;;;;;;5.13;2.20;;;;;;;;;;5070594;28;20056;-49
2022/05/13 01:53:50;;;;;;;2.92;2.25;;;;;;;;;;5063671;28;20426;-48
2022/05/13 01:56:16;;;;;;;3.60;2.15;;;;;;;;;;5067414;28;20108;-49
2022/05/13 01:58:42;;;;;;;4.85;2.40;;;;;;;;;;5062396;28;20099;-50
2022/05/13 02:01:09;;;;;;;2.70;2.40;;;;;;;;;;5064281;28;20104;-50
2022/05/13 02:03:44;;;;;;;4.53;2.45;;;;;;;;;;5065841;28;20028;-49
2022/05/13 02:06:10;;;;;;;5.15;2.38;;;;;;;;;;5068324;28;20480;-49
2022/05/13 02:08:36;;;;;;;2.40;2.20;;;;;;;;;;5059634;28;20083;-49
2022/05/13 02:11:02;;;;;;;2.50;2.30;;;;;;;;;;5057457;28;20040;-49
2022/05/13 02:13:28;;;;;;;4.57;2.67;;;;;;;;;;5064262;28;20025;-50
2022/05/13 02:15:54;;;;;;;4.85;2.40;;;;;;;;;;5065494;28;20032;-49
2022/05/13 02:18:20;;;;;;;6.68;3.00;;;;;;;;;;5060925;28;20032;-50
2022/05/13 02:20:47;;;;;;;4.00;2.55;;;;;;;;;;5062979;28;20811;-50
2022/05/13 02:23:13;;;;;;;5.60;3.30;;;;;;;;;;5066348;28;20020;-49
2022/05/13 02:25:39;;;;;;;5.88;2.63;;;;;;;;;;5061304;28;20017;-49
2022/05/13 02:28:06;;;;;;;4.13;3.15;;;;;;;;;;5057586;28;20048;-50
2022/05/13 02:30:32;;;;;;;4.85;2.85;;;;;;;;;;5059852;28;20064;-49
2022/05/13 02:32:58;;;;;;;2.97;2.65;;;;;;;;;;5064764;28;20036;-49
2022/05/13 02:35:25;;;;;;;3.50;2.70;;;;;;;;;;5063390;28;20043;-49
2022/05/13 02:37:51;;;;;;;3.83;2.88;;;;;;;;;;5066378;28;20073;-49
2022/05/13 02:40:18;;;;;;;4.35;2.58;;;;;;;;;;5059396;28;20025;-50
2022/05/13 02:42:44;;;;;;;3.38;2.30;;;;;;;;;;5064700;28;20036;-50
2022/05/13 02:45:10;;;;;;;3.65;2.65;;;;;;;;;;5059217;28;20043;-49
2022/05/13 02:47:37;;;;;;;2.95;2.60;;;;;;;;;;5066531;28;20020;-49
2022/05/13 02:50:18;;;;;;;4.40;2.55;;;;;;;;;;5065983;28;20033;-49
2022/05/13 02:52:44;;;;;;;5.85;2.95;;;;;;;;;;5069217;28;20020;-49
2022/05/13 02:55:10;;;;;;;3.38;3.08;;;;;;;;;;5062812;28;20024;-49
2022/05/13 02:57:36;;;;;;;3.28;2.95;;;;;;;;;;5060488;28;20024;-49
2022/05/13 03:00:04;;;;;;;4.85;2.85;;;;;;;;;;5054133;28;20464;-52
2022/05/13 03:02:30;;;;;;;3.88;2.97;;;;;;;;;;5061775;28;20033;-50
2022/05/13 03:04:56;;;;;;;3.30;2.92;;;;;;;;;;5064352;28;20466;-50
2022/05/13 03:07:22;;;;;;;3.13;2.70;;;;;;;;;;5064903;28;20108;-50
2022/05/13 03:09:48;;;;;;;3.80;2.80;;;;;;;;;;5063888;28;20124;-50
2022/05/13 03:12:14;;;;;;;3.35;2.85;;;;;;;;;;5059423;28;20038;-52
2022/05/13 03:14:40;;;;;;;4.45;3.40;;;;;;;;;;5064711;28;20025;-49
2022/05/13 03:17:06;;;;;;;3.60;2.85;;;;;;;;;;5059757;28;20455;-52
2022/05/13 03:19:32;;;;;;;2.92;2.60;;;;;;;;;;5062688;28;20136;-49
2022/05/13 03:21:58;;;;;;;4.72;2.65;;;;;;;;;;5064059;28;20037;-49
2022/05/13 03:24:24;;;;;;;3.53;2.80;;;;;;;;;;5063857;28;20106;-49
2022/05/13 03:26:50;;;;;;;6.22;3.10;;;;;;;;;;5054769;28;20025;-51
2022/05/13 03:29:16;;;;;;;3.35;2.78;;;;;;;;;;5065919;28;20044;-50
2022/05/13 03:31:42;;;;;;;5.30;3.42;;;;;;;;;;5052927;28;20036;-49
2022/05/13 03:34:08;;;;;;;3.92;2.80;;;;;;;;;;5056209;28;20439;-51
2022/05/13 03:36:34;;;;;;;6.07;3.28;;;;;;;;;;5062485;28;20396;-49
2022/05/13 03:39:00;;;;;;;3.92;3.53;;;;;;;;;;5057205;28;20035;-50
2022/05/13 03:41:26;;;;;;;4.70;3.33;;;;;;;;;;5061917;28;20021;-50
2022/05/13 03:43:52;;;;;;;4.90;3.70;;;;;;;;;;5060897;28;20021;-50
2022/05/13 03:46:18;;;;;;;7.13;3.45;;;;;;;;;;5059912;28;20082;-49
2022/05/13 03:48:44;;;;;;;3.85;2.95;;;;;;;;;;5063344;28;20032;-49
2022/05/13 03:51:10;;;;;;;5.32;3.08;;;;;;;;;;5065702;28;20029;-48
2022/05/13 03:53:36;;;;;;;4.78;3.22;;;;;;;;;;5055894;28;20476;-50
2022/05/13 03:56:02;;;;;;;4.40;3.67;;;;;;;;;;5056057;28;20028;-49
2022/05/13 03:58:28;;;;;;;3.53;3.13;;;;;;;;;;5059695;28;20025;-48
2022/05/13 04:00:54;;;;;;;6.28;4.00;;;;;;;;;;5061736;28;20025;-49
2022/05/13 04:03:20;;;;;;;4.35;3.50;;;;;;;;;;5060825;28;20086;-49
2022/05/13 04:11:15;;;;;;;4.55;3.88;;;;;;;;;;5061607;28;20051;-49
2022/05/13 04:16:26;;;;;;;5.93;4.85;;;;;;;;;;5069800;28;20093;-50
2022/05/13 04:18:53;;;;;;;6.50;4.00;;;;;;;;;;5054815;28;20412;-49
2022/05/13 04:21:20;;;;;;;7.88;4.75;;;;;;;;;;5057678;28;20168;-52
2022/05/13 04:23:48;;;;;;;7.78;4.25;;;;;;;;;;5055076;28;20025;-50
2022/05/13 04:26:14;;;;;;;6.47;4.88;;;;;;;;;;5058812;28;20021;-50
2022/05/13 04:28:41;;;;;;;5.38;4.82;;;;;;;;;;5062397;28;20103;-51
2022/05/13 04:31:08;;;;;;;7.32;4.43;;;;;;;;;;5050286;28;20087;-50
2022/05/13 04:33:34;;;;;;;6.70;4.60;;;;;;;;;;5054640;28;20060;-51
2022/05/13 04:36:00;;;;;;;7.80;4.80;;;;;;;;;;5063721;28;20056;-52
2022/05/13 04:38:26;;;;;;;8.13;5.25;;;;;;;;;;5057904;28;20052;-50
2022/05/13 04:40:52;;;;;;;8.00;5.50;;;;;;;;;;5067203;28;20062;-50
2022/05/13 04:43:18;;;;;;;7.38;4.65;;;;;;;;;;5061233;28;20047;-50
2022/05/13 04:45:44;;;;;;;8.55;4.68;;;;;;;;;;5067667;28;20029;-50
2022/05/13 04:48:17;;;;;;;7.47;5.18;;;;;;;;;;5069945;28;20028;-49
2022/05/13 04:50:44;;;;;;;7.68;5.10;;;;;;;;;;5072242;28;20021;-49
2022/05/13 04:53:11;;;;;;;8.00;4.55;;;;;;;;;;5069336;28;20472;-49
2022/05/13 04:55:37;;;;;;;5.10;4.55;;;;;;;;;;5067150;28;20024;-49
2022/05/13 04:58:04;;;;;;;5.82;4.75;;;;;;;;;;5062353;28;20017;-49
2022/05/13 05:00:30;;;;;;;9.52;4.68;;;;;;;;;;5064718;28;20036;-52
2022/05/13 05:02:56;;;;;;;7.05;5.10;;;;;;;;;;5060382;28;20028;-51
2022/05/13 05:05:23;;;;;;;7.80;5.10;;;;;;;;;;5061225;28;20032;-50
2022/05/13 05:07:49;;;;;;;6.78;5.20;;;;;;;;;;5066970;28;20389;-52
2022/05/13 05:10:15;;;;;;;6.68;4.82;;;;;;;;;;5063737;28;20036;-49
2022/05/13 05:12:41;;;;;;;9.68;5.57;;;;;;;;;;5065345;28;20024;-49
2022/05/13 05:15:08;;;;;;;8.57;5.50;;;;;;;;;;5061436;28;20044;-50
2022/05/13 05:17:34;;;;;;;8.75;5.40;;;;;;;;;;5070317;28;20059;-50
2022/05/13 05:20:00;;;;;;;6.35;5.32;;;;;;;;;;5058003;28;20077;-49
2022/05/13 05:22:26;;;;;;;9.60;5.65;;;;;;;;;;5062014;28;20025;-50
2022/05/13 05:24:53;;;;;;;7.72;5.15;;;;;;;;;;5066292;28;20420;-49
2022/05/13 05:27:20;;;;;;;7.40;5.25;;;;;;;;;;5061061;28;20464;-49
2022/05/13 05:29:46;;;;;;;6.32;4.82;;;;;;;;;;5057721;28;20468;-49
2022/05/13 05:32:12;;;;;;;7.13;4.97;;;;;;;;;;5059976;28;20678;-50
2022/05/13 05:34:39;;;;;;;7.50;5.68;;;;;;;;;;5066299;28;20483;-49
2022/05/13 05:37:05;;;;;;;7.05;4.90;;;;;;;;;;5056662;28;20017;-53
2022/05/13 05:39:31;;;;;;;6.30;4.85;;;;;;;;;;5064264;28;20048;-50
2022/05/13 05:41:57;;;;;;;8.35;4.68;;;;;;;;;;5067979;28;20072;-50
2022/05/13 05:44:23;;;;;;;5.20;4.32;;;;;;;;;;5066938;28;20028;-48
2022/05/13 05:46:48;;;;;;;5.88;4.78;;;;;;;;;;5067557;28;20465;-51
2022/05/13 05:49:14;;;;;;;5.05;4.53;;;;;;;;;;5057258;28;20037;-50
2022/05/13 05:51:40;;;;;;;9.05;4.50;;;;;;;;;;5058894;28;20079;-49
2022/05/13 05:59:36;;;;;;;5.85;3.70;;;;;;;;;;5049499;28;20067;-50
2022/05/13 06:02:02;;;;;;;5.78;4.45;;;;;;;;;;5051151;28;20488;-50
2022/05/13 06:04:27;;;;;;;7.65;3.58;;;;;;;;;;5068089;28;20063;-49
2022/05/13 06:06:53;;;;;;;6.95;3.60;;;;;;;;;;5068424;28;20062;-49
2022/05/13 06:09:19;;;;;;;8.10;3.70;;;;;;;;;;5064243;28;20039;-50
2022/05/13 06:11:46;;;;;;;5.38;3.55;;;;;;;;;;5064959;28;20075;-49
2022/05/13 06:14:12;;;;;;;5.00;3.42;;;;;;;;;;5066892;28;20032;-49
2022/05/13 06:16:38;;;;;;;5.55;3.67;;;;;;;;;;5059444;28;20025;-50
2022/05/13 06:19:04;;;;;;;6.60;3.40;;;;;;;;;;5064972;28;20468;-50
2022/05/13 06:21:31;;;;;;;8.20;3.97;;;;;;;;;;5066992;28;20031;-53
2022/05/13 06:23:57;;;;;;;6.60;3.95;;;;;;;;;;5068483;28;20047;-49
2022/05/13 06:26:24;;;;;;;5.38;3.50;;;;;;;;;;5060322;28;20033;-49
2022/05/13 06:28:50;;;;;;;4.53;3.05;;;;;;;;;;5066552;28;20464;-50
2022/05/13 06:31:18;;;;;;;7.07;3.67;;;;;;;;;;5057858;28;20514;-51
2022/05/13 06:33:44;;;;;;;5.82;3.67;;;;;;;;;;5055597;28;20045;-49
2022/05/13 06:36:10;;;;;;;8.00;3.80;;;;;;;;;;5061272;28;20029;-49
2022/05/13 06:38:36;;;;;;;5.35;3.30;;;;;;;;;;5067943;28;20396;-49
2022/05/13 06:41:02;;;;;;;6.07;3.90;;;;;;;;;;5066276;28;20028;-50
2022/05/13 06:43:29;;;;;;;7.63;4.28;;;;;;;;;;5066780;28;20058;-49
2022/05/13 06:45:55;;;;;;;5.55;3.78;;;;;;;;;;5066933;28;20583;-49
2022/05/13 06:48:21;;;;;;;6.00;3.72;;;;;;;;;;5063813;28;20033;-50
2022/05/13 06:50:47;;;;;;;6.15;3.25;;;;;;;;;;5064136;28;20028;-49
2022/05/13 06:53:14;;;;;;;10.07;3.85;;;;;;;;;;5058361;28;20395;-52
2022/05/13 06:55:40;;;;;;;7.50;3.80;;;;;;;;;;5068553;28;20129;-50
2022/05/13 06:58:07;;;;;;;8.98;4.03;;;;;;;;;;5069711;28;20033;-50
2022/05/13 07:00:33;;;;;;;8.45;4.28;;;;;;;;;;5070547;28;20028;-49
2022/05/13 07:02:59;;;;;;;7.00;4.15;;;;;;;;;;5063066;28;20039;-52
2022/05/13 07:05:25;;;;;;;7.80;3.60;;;;;;;;;;5064194;28;20036;-50
2022/05/13 07:07:51;;;;;;;5.68;3.90;;;;;;;;;;5060077;28;20050;-50
2022/05/13 07:10:17;;;;;;;8.23;4.05;;;;;;;;;;5070097;28;20021;-50
2022/05/13 07:12:43;;;;;;;7.57;3.50;;;;;;;;;;5065968;28;20031;-49
2022/05/13 07:15:11;;;;;;;7.80;4.35;;;;;;;;;;5067983;28;20403;-49
2022/05/13 07:17:37;;;;;;;13.73;4.85;;;;;;;;;;5062532;28;20488;-49
2022/05/13 07:20:03;;;;;;;7.00;3.63;;;;;;;;;;5068444;28;20120;-49
2022/05/13 07:22:29;;;;;;;5.63;3.72;;;;;;;;;;5069183;28;20029;-49
2022/05/13 07:24:55;;;;;;;7.18;3.70;;;;;;;;;;5064133;28;20103;-50
2022/05/13 07:27:21;;;;;;;10.98;4.55;;;;;;;;;;5051411;28;20083;-49
2022/05/13 07:29:47;;;;;;;8.45;4.00;;;;;;;;;;5056508;28;20032;-50
2022/05/13 07:32:13;;;;;;;5.10;4.00;;;;;;;;;;5066730;28;20369;-50
2022/05/13 07:34:39;;;;;;;11.02;4.80;;;;;;;;;;5064690;28;20031;-50
2022/05/13 07:37:05;;;;;;;8.65;4.35;;;;;;;;;;5066845;28;20056;-52
2022/05/13 07:42:16;;;;;;;8.55;3.97;;;;;;;;;;5061624;28;20435;-50
2022/05/13 07:44:42;;;;;;;6.72;4.18;;;;;;;;;;5053761;28;20040;-50
2022/05/13 07:47:09;;;;;;;8.25;4.35;;;;;;;;;;5062292;28;20380;-49
2022/05/13 07:49:35;;;;;;;7.00;3.88;;;;;;;;;;5061080;28;20124;-49
2022/05/13 07:52:02;;;;;;;7.85;4.75;;;;;;;;;;5061542;28;20108;-49
2022/05/13 07:54:28;;;;;;;7.28;4.53;;;;;;;;;;5063035;28;20386;-50
2022/05/13 07:56:54;;;;;;;10.05;4.32;;;;;;;;;;5067240;28;20046;-48
2022/05/13 07:59:20;;;;;;;7.82;4.22;;;;;;;;;;5062106;28;20514;-49
2022/05/13 08:01:46;;;;;;;10.27;4.93;;;;;;;;;;5052321;28;20530;-50
2022/05/13 08:04:12;;;;;;;12.27;5.35;;;;;;;;;;5053787;28;20025;-49
2022/05/13 08:06:39;;;;;;;8.82;4.75;;;;;;;;;;5061155;28;20433;-49
2022/05/13 08:09:05;;;;;;;7.10;4.00;;;;;;;;;;5059656;28;20038;-54
2022/05/13 08:11:31;;;;;;;10.75;4.72;;;;;;;;;;5062241;28;20017;-53
2022/05/13 08:13:57;;;;;;;11.90;4.32;;;;;;;;;;5072322;28;20032;-51
2022/05/13 08:16:25;;;;;;;7.25;4.60;;;;;;;;;;5073775;28;20117;-49
2022/05/13 08:18:52;;;;;;;7.70;3.95;;;;;;;;;;5065614;28;20116;-52
2022/05/13 08:21:18;;;;;;;8.50;4.45;;;;;;;;;;5068790;28;20028;-49
2022/05/13 08:23:44;;;;;;;9.20;4.60;;;;;;;;;;5065566;28;20028;-51
2022/05/13 08:26:11;;;;;;;7.97;5.22;;;;;;;;;;5061860;28;20170;-50
2022/05/13 08:28:37;;;;;;;9.10;4.32;;;;;;;;;;5065731;28;20116;-49
2022/05/13 08:31:03;;;;;;;8.05;4.93;;;;;;;;;;5057981;28;20112;-50
2022/05/13 08:33:29;;;;;;;9.43;4.57;;;;;;;;;;5058970;28;20048;-49
2022/05/13 08:35:57;;;;;;;7.38;4.53;;;;;;;;;;5066808;28;20029;-50
2022/05/13 08:38:24;;;;;;;10.15;4.90;;;;;;;;;;5063523;28;20217;-49
2022/05/13 08:40:50;;;;;;;6.72;4.03;;;;;;;;;;5060911;28;20029;-48
2022/05/13 08:43:18;;;;;;;6.25;3.95;;;;;;;;;;5067357;28;20056;-48
2022/05/13 08:45:49;;;;;;;9.45;4.70;;;;;;;;;;5073050;28;20648;-49
2022/05/13 08:48:18;;;;;;;8.23;4.78;;;;;;;;;;5067314;28;20029;-52
2022/05/13 08:51:18;;;;;;;8.63;4.25;;;;;;;;;;5072773;28;20494;-49
2022/05/13 08:54:05;;;;;;;8.98;4.05;;;;;;;;;;5027561;28;20033;-49
2022/05/13 08:56:31;;;;;;;8.88;5.15;;;;;;;;;;5068326;28;20036;-49
2022/05/13 08:59:02;;;;;;;8.52;5.10;;;;;;;;;;5063580;28;20016;-48
2022/05/13 09:01:35;;;;;;;6.43;4.40;;;;;;;;;;5065926;28;20035;-50
2022/05/13 09:04:03;;;;;;;7.43;3.75;;;;;;;;;;5068214;28;20029;-53
2022/05/13 09:06:37;;;;;;;7.03;3.72;;;;;;;;;;5062294;28;20503;-50
2022/05/13 09:09:04;;;;;;;4.50;3.13;;;;;;;;;;5054447;28;20033;-50
2022/05/13 09:11:31;;;;;;;4.95;3.33;;;;;;;;;;5066232;28;20082;-50
2022/05/13 09:14:05;;;;;;;9.23;3.50;;;;;;;;;;5060528;28;20480;-49
2022/05/13 09:16:31;;;;;;;;;;;;;;;;;;5070309;28;20035;-50
2022/05/13 09:19:02;;;;;;;5.20;2.83;;;;;;;;;;5068747;28;20024;-50
2022/05/13 09:21:28;;;;;;;4.95;2.63;;;;;;;;;;5069071;28;20269;-50
2022/05/13 09:23:54;;;;;;;4.72;2.47;;;;;;;;;;5057465;28;20032;-50
2022/05/13 09:26:22;;;;;;;4.70;2.58;;;;;;;;;;5059281;28;20020;-48
2022/05/13 09:29:08;;;;;;;7.65;2.60;;;;;;;;;;5071208;28;20036;-50
2022/05/13 09:31:36;;;;;;;7.25;2.30;;;;;;;;;;5057593;28;20035;-50
2022/05/13 09:34:02;;;;;;;5.63;2.20;;;;;;;;;;5063234;28;20028;-49
2022/05/13 09:36:27;;;;;;;3.60;1.98;;;;;;;;;;5062063;28;20087;-49
2022/05/13 09:38:59;;;;;;;5.97;2.00;;;;;;;;;;5060687;28;20031;-51
2022/05/13 09:41:26;;;;;;;5.05;2.03;;;;;;;;;;5061813;28;20412;-50
2022/05/13 09:43:57;;;;;;;7.55;2.35;;;;;;;;;;5061896;28;20492;-49
2022/05/13 09:46:30;;;;;;;3.72;1.98;;;;;;;;;;5069036;28;20052;-53
2022/05/13 09:49:05;;;;;;;5.03;2.28;;;;;;;;;;5037033;28;20029;-53
2022/05/13 09:51:54;;;;;;;4.15;2.30;;;;;;;;;;5055335;28;20519;-49
2022/05/13 09:54:25;;;;;;;4.57;2.42;;;;;;;;;;5055715;28;20051;-49
2022/05/13 09:57:03;;;;;;;7.82;2.92;;;;;;;;;;5055182;28;20031;-51
2022/05/13 09:59:29;;;;;;;7.00;2.80;;;;;;;;;;5067666;28;20046;-51
2022/05/13 10:02:13;;;;;;;6.30;2.15;;;;;;;;;;5056881;28;20033;-53
2022/05/13 10:04:39;;;;;;;3.13;1.80;;;;;;;;;;5060792;28;20544;-51
2022/05/13 10:07:08;;;;;;;5.38;2.47;;;;;;;;;;5057935;28;20029;-51
2022/05/13 10:15:20;;;;;;;5.80;2.30;;;;;;;;;;5060301;28;20116;-52
2022/05/13 10:17:51;;;;;;;4.47;1.83;;;;;;;;;;5059489;28;20035;-49
2022/05/13 10:20:35;;;;;;;5.65;2.30;;;;;;;;;;5064827;28;20108;-51
2022/05/13 10:23:07;;;;;;;3.47;2.03;;;;;;;;;;5070913;28;20384;-52
2022/05/13 10:25:36;;;;;;;7.03;1.90;;;;;;;;;;5057057;28;20060;-49
2022/05/13 10:28:09;;;;;;;4.75;1.50;;;;;;;;;;5066883;28;20028;-50
2022/05/13 10:30:40;;;;;;;4.57;1.70;;;;;;;;;;5070978;28;20033;-53
2022/05/13 10:33:16;;;;;;;6.57;1.50;;;;;;;;;;5071198;28;20484;-52
2022/05/13 10:35:49;;;;;;;4.00;1.35;;;;;;;;;;5053363;28;20029;-51
2022/05/13 10:38:20;;;;;;;2.72;1.17;;;;;;;;;;5066497;28;20033;-52
2022/05/13 10:40:47;;;;;;;2.50;1.30;;;;;;;;;;5068893;28;20033;-49
2022/05/13 10:43:48;;;;;;;7.28;1.00;;;;;;;;;;5067593;28;20093;-50
2022/05/13 10:46:26;;;;;;;7.43;1.20;;;;;;;;;;4993998;28;20048;-51
2022/05/13 10:48:53;;;;;;;9.68;1.30;;;;;;;;;;5061573;28;20040;-53
2022/05/13 10:51:25;;;;;;;4.18;1.17;;;;;;;;;;5058923;28;20392;-51
2022/05/13 10:54:10;;;;;;;2.97;0.97;;;;;;;;;;5060653;28;20052;-54
2022/05/13 10:57:02;;;;;;;5.38;1.13;;;;;;;;;;5058985;28;20160;-50
2022/05/13 10:59:40;;;;;;;4.32;1.23;;;;;;;;;;5067603;28;20421;-51
2022/05/13 11:02:14;;;;;;;4.30;0.98;;;;;;;;;;5062181;28;20481;-53
2022/05/13 11:04:52;;;;;;;2.20;0.80;;;;;;;;;;5061994;28;20078;-51
2022/05/13 11:07:34;;;;;;;3.47;1.05;;;;;;;;;;5064779;28;20028;-50
2022/05/13 11:10:21;;;;;;;1.63;0.70;;;;;;;;;;5053667;28;20028;-50
2022/05/13 11:12:58;;;;;;;2.33;0.80;;;;;;;;;;5057893;28;20080;-51
2022/05/13 11:15:47;;;;;;;4.88;1.00;;;;;;;;;;5054911;28;20112;-54
2022/05/13 11:18:37;;;;;;;5.85;1.40;;;;;;;;;;5058411;28;20024;-50
2022/05/13 11:21:12;;;;;;;6.65;1.15;;;;;;;;;;5061725;28;20055;-49
2022/05/13 11:26:48;;;;;;;3.50;1.38;;;;;;;;;;5054662;28;20078;-51
2022/05/13 11:29:16;;;;;;;5.85;0.90;;;;;;;;;;5059305;28;20055;-50
2022/05/13 11:32:01;;;;;;;4.15;1.38;;;;;;;;;;5054954;28;20017;-51
2022/05/13 11:34:46;;;;;;;4.40;2.10;;;;;;;;;;5059289;28;21313;-50
2022/05/13 11:37:13;;;;;;;3.85;1.20;;;;;;;;;;5055140;28;20040;-50
2022/05/13 11:39:43;;;;;;;6.03;1.70;;;;;;;;;;5062633;28;20029;-50
2022/05/13 11:42:09;;;;;;;4.10;1.77;;;;;;;;;;5055019;28;21586;-51
2022/05/13 11:45:02;;;;;;;5.25;1.52;;;;;;;;;;5058939;28;20037;-51
2022/05/13 11:47:56;;;;;;;3.30;1.25;;;;;;;;;;5066821;28;20028;-52
2022/05/13 11:50:22;;;;;;;;;;;;;;;;;;5069477;28;20067;-51
2022/05/13 11:52:49;;;;;;;4.80;1.30;;;;;;;;;;5068941;28;19951;-50
2022/05/13 11:55:15;;;;;;;5.05;1.35;;;;;;;;;;5067620;28;20024;-50
2022/05/13 11:57:45;;;;;;;3.30;1.38;;;;;;;;;;5069015;28;20159;-51
2022/05/13 12:00:23;;;;;;;4.78;1.42;;;;;;;;;;5064276;28;20056;-51
2022/05/13 12:02:50;;;;;;;3.92;1.10;;;;;;;;;;5058421;28;20028;-51
2022/05/13 12:05:19;;;;;;;1.33;1.00;;;;;;;;;;5070344;28;20040;-50
2022/05/13 12:07:51;;;;;;;4.20;1.00;;;;;;;;;;5063794;28;20104;-51
2022/05/13 12:10:18;;;;;;;3.70;1.00;;;;;;;;;;5066852;28;20036;-51
2022/05/13 12:12:45;;;;;;;6.22;0.82;;;;;;;;;;5061834;28;20477;-50
2022/05/13 12:15:23;;;;;;;5.30;1.10;;;;;;;;;;5070932;28;20035;-53
2022/05/13 12:18:03;;;;;;;5.22;1.13;;;;;;;;;;5066670;28;20044;-52
2022/05/13 12:20:29;;;;;;;6.88;1.67;;;;;;;;;;5059006;28;22229;-53
2022/05/13 12:23:10;;;;;;;2.13;0.90;;;;;;;;;;5060667;28;20082;-52
2022/05/13 12:25:36;;;;;;;2.63;1.00;;;;;;;;;;5060864;28;20032;-53
2022/05/13 12:28:04;;;;;;;2.97;1.13;;;;;;;;;;5066779;28;20021;-52
2022/05/13 12:30:34;;;;;;;4.03;1.60;;;;;;;;;;5063624;28;20040;-52
2022/05/13 12:33:24;;;;;;;3.38;1.70;;;;;;;;;;5065314;28;20086;-50
2022/05/13 12:38:57;;;;;;;5.72;1.38;;;;;;;;;;5059978;28;20606;-50
2022/05/13 12:41:24;;;;;;;4.22;1.00;;;;;;;;;;5060086;28;20067;-52
2022/05/13 12:44:10;;;;;;;3.33;1.42;;;;;;;;;;5062537;28;20033;-51
2022/05/13 12:46:47;;;;;;;3.67;1.30;;;;;;;;;;5057723;28;20025;-50
2022/05/13 12:49:13;;;;;;;4.32;1.20;;;;;;;;;;5054884;28;20040;-52
2022/05/13 12:51:45;;;;;;;3.03;1.08;;;;;;;;;;5066316;28;20032;-52
2022/05/13 12:54:12;;;;;;;7.53;1.20;;;;;;;;;;5058140;28;20053;-50
2022/05/13 12:56:45;;;;;;;4.57;1.25;;;;;;;;;;5069583;28;20025;-51
2022/05/13 12:59:16;;;;;;;3.13;0.88;;;;;;;;;;5068355;28;20029;-50
2022/05/13 13:01:45;;;;;;;4.80;1.17;;;;;;;;;;5060302;28;20033;-52
2022/05/13 13:04:12;;;;;;;4.28;1.35;;;;;;;;;;5065372;28;20477;-53
2022/05/13 13:06:43;;;;;;;2.58;1.10;;;;;;;;;;5062669;28;20044;-50
2022/05/13 13:09:20;;;;;;;7.05;1.40;;;;;;;;;;5057672;28;20107;-51
2022/05/13 13:12:02;;;;;;;4.25;1.30;;;;;;;;;;5060535;28;20040;-49
2022/05/13 13:14:47;;;;;;;3.47;1.20;;;;;;;;;;5065713;28;20514;-49
2022/05/13 13:17:19;;;;;;;6.43;1.75;;;;;;;;;;5063312;28;20021;-50
2022/05/13 13:19:46;;;;;;;5.25;1.30;;;;;;;;;;5060739;28;20527;-50
2022/05/13 13:22:13;;;;;;;6.93;1.38;;;;;;;;;;5064251;28;20024;-50
2022/05/13 13:24:40;;;;;;;8.55;1.50;;;;;;;;;;5060294;28;20033;-49
2022/05/13 13:27:07;;;;;;;5.75;1.70;;;;;;;;;;5064387;28;20029;-49
2022/05/13 13:29:41;;;;;;;7.80;2.00;;;;;;;;;;5056121;28;20040;-48
2022/05/13 13:32:11;;;;;;;6.47;1.60;;;;;;;;;;5062008;28;20388;-50
2022/05/13 13:34:39;;;;;;;5.25;1.83;;;;;;;;;;5064101;28;20048;-51
2022/05/13 13:37:13;;;;;;;2.60;1.40;;;;;;;;;;5057956;28;20536;-49
2022/05/13 13:39:39;;;;;;;4.30;1.17;;;;;;;;;;5056599;28;20040;-51
2022/05/13 13:42:10;;;;;;;4.97;1.30;;;;;;;;;;5044016;28;20020;-50
2022/05/13 13:44:37;;;;;;;4.18;1.15;;;;;;;;;;5057616;28;20488;-51
2022/05/13 13:47:04;;;;;;;5.40;1.13;;;;;;;;;;5060729;28;20044;-50
2022/05/13 13:49:32;;;;;;;3.17;0.80;;;;;;;;;;5055705;28;20569;-51
2022/05/13 13:52:00;;;;;;;4.82;0.90;;;;;;;;;;5060959;28;20465;-54
2022/05/13 13:54:32;;;;;;;3.97;1.05;;;;;;;;;;5058047;28;20041;-50
2022/05/13 13:57:07;;;;;;;6.20;1.33;;;;;;;;;;5058284;28;20027;-53
2022/05/13 13:59:54;;;;;;;3.05;0.77;;;;;;;;;;5064218;28;20036;-50
2022/05/13 14:02:30;;;;;;;4.07;0.57;;;;;;;;;;5049737;28;20496;-51
2022/05/13 14:04:56;;;;;;;4.07;0.60;;;;;;;;;;5053434;28;20058;-53
2022/05/13 14:07:23;;;;;;;17.88;4.97;;;;;;;;;;5059303;28;20036;-51
2022/05/13 14:09:49;;;;;;;2.42;0.73;;;;;;;;;;5042807;28;20039;-52
2022/05/13 14:12:17;;;;;;;3.20;0.70;;;;;;;;;;5058263;28;20384;-53
2022/05/13 14:14:44;;;;;;;3.50;0.70;;;;;;;;;;5065599;28;20025;-53
2022/05/13 14:17:11;;;;;;;3.13;0.70;;;;;;;;;;5057627;28;20032;-50
2022/05/13 14:19:48;;;;;;;2.45;0.88;;;;;;;;;;5061387;28;20135;-54
2022/05/13 14:22:14;;;;;;;4.90;1.02;;;;;;;;;;5061916;28;20029;-48
2022/05/13 14:24:41;;;;;;;4.03;1.15;;;;;;;;;;5054278;28;20131;-51
2022/05/13 14:27:15;;;;;;;9.77;3.25;;;;;;;;;;5063018;28;20407;-51
2022/05/13 14:29:41;;;;;;;2.38;0.88;;;;;;;;;;5061830;28;20028;-50
2022/05/13 14:32:11;;;;;;;6.22;1.30;;;;;;;;;;5059996;28;20021;-53
2022/05/13 14:34:38;;;;;;;5.35;1.13;;;;;;;;;;5060217;28;20021;-54
2022/05/13 14:37:06;;;;;;;7.50;1.70;;;;;;;;;;5061484;28;20032;-51
2022/05/13 14:39:49;;;;;;;5.95;0.95;;;;;;;;;;5056942;28;20032;-51
2022/05/13 14:42:22;;;;;;;5.57;1.10;;;;;;;;;;5061219;28;20044;-51
2022/05/13 14:44:50;;;;;;;3.50;0.85;;;;;;;;;;5064181;28;20504;-53
2022/05/13 14:47:37;;;;;;;12.38;1.15;;;;;;;;;;5055499;28;20381;-50
2022/05/13 14:50:05;;;;;;;4.18;1.08;;;;;;;;;;5054510;28;20476;-53
2022/05/13 14:52:33;;;;;;;1.48;0.70;;;;;;;;;;5057759;28;20024;-52
2022/05/13 14:55:00;;;;;;;2.78;0.80;;;;;;;;;;5063435;28;20485;-51
2022/05/13 14:57:29;;;;;;;2.00;0.60;;;;;;;;;;5054115;28;20120;-50
2022/05/13 14:59:57;;;;;;;4.00;0.95;;;;;;;;;;5056353;28;20036;-50
2022/05/13 15:02:35;;;;;;;3.30;0.75;;;;;;;;;;5049004;28;20036;-51
2022/05/13 15:05:30;;;;;;;4.53;0.82;;;;;;;;;;5057373;28;20025;-50
2022/05/13 15:07:58;;;;;;;3.85;0.70;;;;;;;;;;5024678;28;20496;-50
2022/05/13 15:10:25;;;;;;;4.30;0.80;;;;;;;;;;5052803;28;20036;-50
2022/05/13 15:12:52;;;;;;;2.30;1.08;;;;;;;;;;5061311;28;20530;-50
2022/05/13 15:15:18;;;;;;;1.42;0.40;;;;;;;;;;5057442;28;20052;-51
2022/05/13 15:17:49;;;;;;;4.00;0.38;;;;;;;;;;5061366;28;22132;-53
2022/05/13 15:20:15;;;;;;;2.92;0.80;;;;;;;;;;5069926;28;20119;-50
2022/05/13 15:22:42;;;;;;;3.28;0.75;;;;;;;;;;5056526;28;21869;-52
2022/05/13 15:25:09;;;;;;;0.77;0.55;;;;;;;;;;5059424;28;20469;-50